sensor_id;sensor_type;location;lat;lon;timestamp;P1;P2;P0
43479;PMS5003;29067;35.492;-97.520;2022-07-29T00:00:37;4;3;
43479;PMS5003;29067;35.492;-97.520;2022-07-29T00:03:05;4;4;
43479;PMS5003;29067;35.492;-97.520;2022-07-29T00:05:32;4;4;
43479;PMS5003;29067;35.492;-97.520;2022-07-29T00:08:00;4;4;
43479;PMS5003;29067;35.492;-97.520;2022-07-29T00:10:27;5;5;
43479;PMS5003;29067;35.492;-97.520;2022-07-29T00:12:55;3;3;
43479;PMS5003;29067;35.492;-97.520;2022-07-29T00:15:23;4;4;
43479;PMS5003;29067;35.492;-97.520;2022-07-29T00:17:51;3;3;
43479;PMS5003;29067;35.492;-97.520;2022-07-29T00:20:19;2;2;
43479;PMS5003;29067;35.492;-97.520;2022-07-29T00:22:47;1;1;
43479;PMS5003;29067;35.492;-97.520;2022-07-29T00:25:16;2;2;
43479;PMS5003;29067;35.492;-97.520;2022-07-29T00:27:44;3;2;
43479;PMS5003;29067;35.492;-97.520;2022-07-29T00:30:12;3;3;
43479;PMS5003;29067;35.492;-97.520;2022-07-29T00:32:40;7;7;
43479;PMS5003;29067;35.492;-97.520;2022-07-29T00:35:09;7;7;
43479;PMS5003;29067;35.492;-97.520;2022-07-29T00:37:38;11;9;
43479;PMS5003;29067;35.492;-97.520;2022-07-29T00:40:06;7;7;
43479;PMS5003;29067;35.492;-97.520;2022-07-29T00:42:41;4;4;
43479;PMS5003;29067;35.492;-97.520;2022-07-29T00:45:10;6;6;
43479;PMS5003;29067;35.492;-97.520;2022-07-29T00:47:38;5;5;
43479;PMS5003;29067;35.492;-97.520;2022-07-29T00:50:07;4;3;
43479;PMS5003;29067;35.492;-97.520;2022-07-29T00:52:37;1;1;
43479;PMS5003;29067;35.492;-97.520;2022-07-29T00:55:08;2;2;
43479;PMS5003;29067;35.492;-97.520;2022-07-29T00:57:39;3;3;
43479;PMS5003;29067;35.492;-97.520;2022-07-29T01:00:09;2;2;
43479;PMS5003;29067;35.492;-97.520;2022-07-29T01:02:38;2;2;
43479;PMS5003;29067;35.492;-97.520;2022-07-29T01:05:06;3;3;
43479;PMS5003;29067;35.492;-97.520;2022-07-29T01:07:35;3;3;
43479;PMS5003;29067;35.492;-97.520;2022-07-29T01:10:04;3;3;
43479;PMS5003;29067;35.492;-97.520;2022-07-29T01:12:35;5;5;
43479;PMS5003;29067;35.492;-97.520;2022-07-29T01:15:05;5;5;
43479;PMS5003;29067;35.492;-97.520;2022-07-29T01:17:36;5;5;
43479;PMS5003;29067;35.492;-97.520;2022-07-29T01:20:12;3;3;
43479;PMS5003;29067;35.492;-97.520;2022-07-29T01:22:56;6;5;
43479;PMS5003;29067;35.492;-97.520;2022-07-29T01:25:44;4;4;
43479;PMS5003;29067;35.492;-97.520;2022-07-29T01:28:33;5;4;
43479;PMS5003;29067;35.492;-97.520;2022-07-29T01:31:06;5;5;
43479;PMS5003;29067;35.492;-97.520;2022-07-29T01:33:38;4;4;
43479;PMS5003;29067;35.492;-97.520;2022-07-29T01:36:10;21;21;
43479;PMS5003;29067;35.492;-97.520;2022-07-29T01:38:41;31;31;
43479;PMS5003;29067;35.492;-97.520;2022-07-29T01:41:12;15;15;
43479;PMS5003;29067;35.492;-97.520;2022-07-29T01:43:47;13;13;
43479;PMS5003;29067;35.492;-97.520;2022-07-29T01:46:19;14;14;
43479;PMS5003;29067;35.492;-97.520;2022-07-29T01:48:53;14;13;
43479;PMS5003;29067;35.492;-97.520;2022-07-29T01:51:29;21;21;
43479;PMS5003;29067;35.492;-97.520;2022-07-29T01:54:04;27;27;
43479;PMS5003;29067;35.492;-97.520;2022-07-29T01:56:35;18;18;
43479;PMS5003;29067;35.492;-97.520;2022-07-29T01:59:06;27;27;
43479;PMS5003;29067;35.492;-97.520;2022-07-29T02:01:36;13;13;
43479;PMS5003;29067;35.492;-97.520;2022-07-29T02:04:06;12;12;
43479;PMS5003;29067;35.492;-97.520;2022-07-29T02:06:37;9;9;
43479;PMS5003;29067;35.492;-97.520;2022-07-29T02:09:07;13;13;
43479;PMS5003;29067;35.492;-97.520;2022-07-29T02:11:37;6;6;
43479;PMS5003;29067;35.492;-97.520;2022-07-29T02:14:07;6;6;
43479;PMS5003;29067;35.492;-97.520;2022-07-29T02:16:37;4;4;
43479;PMS5003;29067;35.492;-97.520;2022-07-29T02:19:07;5;5;
43479;PMS5003;29067;35.492;-97.520;2022-07-29T02:21:37;4;4;
43479;PMS5003;29067;35.492;-97.520;2022-07-29T02:24:07;4;3;
43479;PMS5003;29067;35.492;-97.520;2022-07-29T02:26:38;2;2;
43479;PMS5003;29067;35.492;-97.520;2022-07-29T02:29:09;4;4;
43479;PMS5003;29067;35.492;-97.520;2022-07-29T02:31:39;4;4;
43479;PMS5003;29067;35.492;-97.520;2022-07-29T02:34:08;6;6;
43479;PMS5003;29067;35.492;-97.520;2022-07-29T02:36:37;11;10;
43479;PMS5003;29067;35.492;-97.520;2022-07-29T02:39:06;12;12;
43479;PMS5003;29067;35.492;-97.520;2022-07-29T02:41:38;13;13;
43479;PMS5003;29067;35.492;-97.520;2022-07-29T02:44:11;15;14;
43479;PMS5003;29067;35.492;-97.520;2022-07-29T02:46:42;12;11;
43479;PMS5003;29067;35.492;-97.520;2022-07-29T02:49:16;14;13;
43479;PMS5003;29067;35.492;-97.520;2022-07-29T02:51:54;14;14;
43479;PMS5003;29067;35.492;-97.520;2022-07-29T02:54:30;28;28;
43479;PMS5003;29067;35.492;-97.520;2022-07-29T02:57:02;22;21;
43479;PMS5003;29067;35.492;-97.520;2022-07-29T02:59:36;29;25;
43479;PMS5003;29067;35.492;-97.520;2022-07-29T03:02:08;17;16;
43479;PMS5003;29067;35.492;-97.520;2022-07-29T03:04:38;5;5;
43479;PMS5003;29067;35.492;-97.520;2022-07-29T03:07:09;6;5;
43479;PMS5003;29067;35.492;-97.520;2022-07-29T03:09:40;6;6;
43479;PMS5003;29067;35.492;-97.520;2022-07-29T03:12:09;6;6;
43479;PMS5003;29067;35.492;-97.520;2022-07-29T03:14:38;8;6;
43479;PMS5003;29067;35.492;-97.520;2022-07-29T03:17:06;6;6;
43479;PMS5003;29067;35.492;-97.520;2022-07-29T03:19:37;7;7;
43479;PMS5003;29067;35.492;-97.520;2022-07-29T03:22:06;7;7;
43479;PMS5003;29067;35.492;-97.520;2022-07-29T03:24:35;9;9;
43479;PMS5003;29067;35.492;-97.520;2022-07-29T03:27:04;7;6;
43479;PMS5003;29067;35.492;-97.520;2022-07-29T03:29:32;6;6;
43479;PMS5003;29067;35.492;-97.520;2022-07-29T03:32:02;13;12;
43479;PMS5003;29067;35.492;-97.520;2022-07-29T03:34:30;7;7;
43479;PMS5003;29067;35.492;-97.520;2022-07-29T03:36:58;7;6;
43479;PMS5003;29067;35.492;-97.520;2022-07-29T03:39:27;6;6;
43479;PMS5003;29067;35.492;-97.520;2022-07-29T03:42:00;6;6;
43479;PMS5003;29067;35.492;-97.520;2022-07-29T03:44:29;8;7;
43479;PMS5003;29067;35.492;-97.520;2022-07-29T03:46:58;6;6;
43479;PMS5003;29067;35.492;-97.520;2022-07-29T03:49:28;8;8;
43479;PMS5003;29067;35.492;-97.520;2022-07-29T03:51:58;6;5;
43479;PMS5003;29067;35.492;-97.520;2022-07-29T03:54:26;6;6;
43479;PMS5003;29067;35.492;-97.520;2022-07-29T03:56:53;6;6;
43479;PMS5003;29067;35.492;-97.520;2022-07-29T03:59:23;6;6;
43479;PMS5003;29067;35.492;-97.520;2022-07-29T04:01:53;7;7;
43479;PMS5003;29067;35.492;-97.520;2022-07-29T04:04:24;8;6;
43479;PMS5003;29067;35.492;-97.520;2022-07-29T04:06:52;8;8;
43479;PMS5003;29067;35.492;-97.520;2022-07-29T04:09:20;6;6;
43479;PMS5003;29067;35.492;-97.520;2022-07-29T04:11:47;7;7;
43479;PMS5003;29067;35.492;-97.520;2022-07-29T04:14:15;5;5;
43479;PMS5003;29067;35.492;-97.520;2022-07-29T04:16:44;5;5;
43479;PMS5003;29067;35.492;-97.520;2022-07-29T04:19:11;5;4;
43479;PMS5003;29067;35.492;-97.520;2022-07-29T04:21:40;5;5;
43479;PMS5003;29067;35.492;-97.520;2022-07-29T04:24:08;6;6;
43479;PMS5003;29067;35.492;-97.520;2022-07-29T04:26:35;3;3;
43479;PMS5003;29067;35.492;-97.520;2022-07-29T04:29:03;5;5;
43479;PMS5003;29067;35.492;-97.520;2022-07-29T04:31:31;4;4;
43479;PMS5003;29067;35.492;-97.520;2022-07-29T04:33:59;5;5;
43479;PMS5003;29067;35.492;-97.520;2022-07-29T04:36:27;6;6;
43479;PMS5003;29067;35.492;-97.520;2022-07-29T04:38:55;5;4;
43479;PMS5003;29067;35.492;-97.520;2022-07-29T04:41:22;6;6;
43479;PMS5003;29067;35.492;-97.520;2022-07-29T04:43:51;4;4;
43479;PMS5003;29067;35.492;-97.520;2022-07-29T04:46:18;4;4;
43479;PMS5003;29067;35.492;-97.520;2022-07-29T04:48:46;4;4;
43479;PMS5003;29067;35.492;-97.520;2022-07-29T04:51:15;3;3;
43479;PMS5003;29067;35.492;-97.520;2022-07-29T04:53:43;3;3;
43479;PMS5003;29067;35.492;-97.520;2022-07-29T04:56:11;5;5;
43479;PMS5003;29067;35.492;-97.520;2022-07-29T04:58:39;3;2;
43479;PMS5003;29067;35.492;-97.520;2022-07-29T05:01:06;3;3;
43479;PMS5003;29067;35.492;-97.520;2022-07-29T05:03:34;3;3;
43479;PMS5003;29067;35.492;-97.520;2022-07-29T05:06:01;2;2;
43479;PMS5003;29067;35.492;-97.520;2022-07-29T05:08:30;4;4;
43479;PMS5003;29067;35.492;-97.520;2022-07-29T05:10:58;4;3;
43479;PMS5003;29067;35.492;-97.520;2022-07-29T05:13:26;4;3;
43479;PMS5003;29067;35.492;-97.520;2022-07-29T05:15:54;5;4;
43479;PMS5003;29067;35.492;-97.520;2022-07-29T05:18:22;4;4;
43479;PMS5003;29067;35.492;-97.520;2022-07-29T05:20:51;2;2;
43479;PMS5003;29067;35.492;-97.520;2022-07-29T05:23:19;4;4;
43479;PMS5003;29067;35.492;-97.520;2022-07-29T05:25:47;4;4;
43479;PMS5003;29067;35.492;-97.520;2022-07-29T05:28:15;5;4;
43479;PMS5003;29067;35.492;-97.520;2022-07-29T05:30:43;4;4;
43479;PMS5003;29067;35.492;-97.520;2022-07-29T05:33:11;3;3;
43479;PMS5003;29067;35.492;-97.520;2022-07-29T05:35:39;6;5;
43479;PMS5003;29067;35.492;-97.520;2022-07-29T05:38:07;3;3;
43479;PMS5003;29067;35.492;-97.520;2022-07-29T05:40:34;4;4;
43479;PMS5003;29067;35.492;-97.520;2022-07-29T05:43:01;4;4;
43479;PMS5003;29067;35.492;-97.520;2022-07-29T05:45:29;4;4;
43479;PMS5003;29067;35.492;-97.520;2022-07-29T05:47:57;8;8;
43479;PMS5003;29067;35.492;-97.520;2022-07-29T05:50:24;10;10;
43479;PMS5003;29067;35.492;-97.520;2022-07-29T05:52:52;5;5;
43479;PMS5003;29067;35.492;-97.520;2022-07-29T05:55:19;5;5;
43479;PMS5003;29067;35.492;-97.520;2022-07-29T05:57:47;9;9;
43479;PMS5003;29067;35.492;-97.520;2022-07-29T06:00:15;8;8;
43479;PMS5003;29067;35.492;-97.520;2022-07-29T06:02:43;7;7;
43479;PMS5003;29067;35.492;-97.520;2022-07-29T06:05:10;4;4;
43479;PMS5003;29067;35.492;-97.520;2022-07-29T06:07:38;4;4;
43479;PMS5003;29067;35.492;-97.520;2022-07-29T06:10:05;8;7;
43479;PMS5003;29067;35.492;-97.520;2022-07-29T06:12:34;4;4;
43479;PMS5003;29067;35.492;-97.520;2022-07-29T06:15:02;6;5;
43479;PMS5003;29067;35.492;-97.520;2022-07-29T06:17:30;4;4;
43479;PMS5003;29067;35.492;-97.520;2022-07-29T06:19:58;4;4;
43479;PMS5003;29067;35.492;-97.520;2022-07-29T06:22:25;5;5;
43479;PMS5003;29067;35.492;-97.520;2022-07-29T06:24:54;5;4;
43479;PMS5003;29067;35.492;-97.520;2022-07-29T06:27:22;5;4;
43479;PMS5003;29067;35.492;-97.520;2022-07-29T06:29:50;4;4;
43479;PMS5003;29067;35.492;-97.520;2022-07-29T06:32:17;4;4;
43479;PMS5003;29067;35.492;-97.520;2022-07-29T06:34:45;2;2;
43479;PMS5003;29067;35.492;-97.520;2022-07-29T06:37:12;4;4;
43479;PMS5003;29067;35.492;-97.520;2022-07-29T06:39:40;4;3;
43479;PMS5003;29067;35.492;-97.520;2022-07-29T06:42:07;4;4;
43479;PMS5003;29067;35.492;-97.520;2022-07-29T06:44:35;2;2;
43479;PMS5003;29067;35.492;-97.520;2022-07-29T06:47:02;5;4;
43479;PMS5003;29067;35.492;-97.520;2022-07-29T06:49:30;3;3;
43479;PMS5003;29067;35.492;-97.520;2022-07-29T06:51:57;2;2;
43479;PMS5003;29067;35.492;-97.520;2022-07-29T06:54:25;3;3;
43479;PMS5003;29067;35.492;-97.520;2022-07-29T06:56:52;4;4;
43479;PMS5003;29067;35.492;-97.520;2022-07-29T06:59:20;3;3;
43479;PMS5003;29067;35.492;-97.520;2022-07-29T07:01:48;3;3;
43479;PMS5003;29067;35.492;-97.520;2022-07-29T07:04:15;4;4;
43479;PMS5003;29067;35.492;-97.520;2022-07-29T07:06:43;4;4;
43479;PMS5003;29067;35.492;-97.520;2022-07-29T07:09:10;2;2;
43479;PMS5003;29067;35.492;-97.520;2022-07-29T07:11:38;3;3;
43479;PMS5003;29067;35.492;-97.520;2022-07-29T07:14:05;4;4;
43479;PMS5003;29067;35.492;-97.520;2022-07-29T07:16:34;4;3;
43479;PMS5003;29067;35.492;-97.520;2022-07-29T07:19:01;3;3;
43479;PMS5003;29067;35.492;-97.520;2022-07-29T07:21:29;5;5;
43479;PMS5003;29067;35.492;-97.520;2022-07-29T07:23:56;4;4;
43479;PMS5003;29067;35.492;-97.520;2022-07-29T07:26:25;4;4;
43479;PMS5003;29067;35.492;-97.520;2022-07-29T07:28:53;5;5;
43479;PMS5003;29067;35.492;-97.520;2022-07-29T07:31:21;6;6;
43479;PMS5003;29067;35.492;-97.520;2022-07-29T07:33:48;3;3;
43479;PMS5003;29067;35.492;-97.520;2022-07-29T07:36:16;6;5;
43479;PMS5003;29067;35.492;-97.520;2022-07-29T07:38:43;5;5;
43479;PMS5003;29067;35.492;-97.520;2022-07-29T07:41:11;6;6;
43479;PMS5003;29067;35.492;-97.520;2022-07-29T07:43:38;5;5;
43479;PMS5003;29067;35.492;-97.520;2022-07-29T07:46:06;5;5;
43479;PMS5003;29067;35.492;-97.520;2022-07-29T07:48:33;6;6;
43479;PMS5003;29067;35.492;-97.520;2022-07-29T07:51:01;6;6;
43479;PMS5003;29067;35.492;-97.520;2022-07-29T07:53:29;3;3;
43479;PMS5003;29067;35.492;-97.520;2022-07-29T07:55:57;4;4;
43479;PMS5003;29067;35.492;-97.520;2022-07-29T07:58:24;5;5;
43479;PMS5003;29067;35.492;-97.520;2022-07-29T08:00:52;4;4;
43479;PMS5003;29067;35.492;-97.520;2022-07-29T08:03:20;4;4;
43479;PMS5003;29067;35.492;-97.520;2022-07-29T08:05:47;6;6;
43479;PMS5003;29067;35.492;-97.520;2022-07-29T08:08:15;5;5;
43479;PMS5003;29067;35.492;-97.520;2022-07-29T08:10:42;5;5;
43479;PMS5003;29067;35.492;-97.520;2022-07-29T08:13:10;4;4;
43479;PMS5003;29067;35.492;-97.520;2022-07-29T08:15:38;5;5;
43479;PMS5003;29067;35.492;-97.520;2022-07-29T08:18:07;4;4;
43479;PMS5003;29067;35.492;-97.520;2022-07-29T08:20:36;6;6;
43479;PMS5003;29067;35.492;-97.520;2022-07-29T08:23:04;6;5;
43479;PMS5003;29067;35.492;-97.520;2022-07-29T08:25:35;8;7;
43479;PMS5003;29067;35.492;-97.520;2022-07-29T08:28:04;6;5;
43479;PMS5003;29067;35.492;-97.520;2022-07-29T08:30:32;8;8;
43479;PMS5003;29067;35.492;-97.520;2022-07-29T08:33:01;5;5;
43479;PMS5003;29067;35.492;-97.520;2022-07-29T08:35:29;7;6;
43479;PMS5003;29067;35.492;-97.520;2022-07-29T08:37:57;5;5;
43479;PMS5003;29067;35.492;-97.520;2022-07-29T08:40:24;7;6;
43479;PMS5003;29067;35.492;-97.520;2022-07-29T08:42:53;4;4;
43479;PMS5003;29067;35.492;-97.520;2022-07-29T08:45:20;6;6;
43479;PMS5003;29067;35.492;-97.520;2022-07-29T08:47:49;6;6;
43479;PMS5003;29067;35.492;-97.520;2022-07-29T08:50:18;9;9;
43479;PMS5003;29067;35.492;-97.520;2022-07-29T08:52:45;9;9;
43479;PMS5003;29067;35.492;-97.520;2022-07-29T08:55:16;12;12;
43479;PMS5003;29067;35.492;-97.520;2022-07-29T08:57:45;12;12;
43479;PMS5003;29067;35.492;-97.520;2022-07-29T09:00:13;10;10;
43479;PMS5003;29067;35.492;-97.520;2022-07-29T09:02:42;8;8;
43479;PMS5003;29067;35.492;-97.520;2022-07-29T09:05:14;7;7;
43479;PMS5003;29067;35.492;-97.520;2022-07-29T09:07:43;8;8;
43479;PMS5003;29067;35.492;-97.520;2022-07-29T09:10:11;9;9;
43479;PMS5003;29067;35.492;-97.520;2022-07-29T09:12:39;8;8;
43479;PMS5003;29067;35.492;-97.520;2022-07-29T09:15:08;7;7;
43479;PMS5003;29067;35.492;-97.520;2022-07-29T09:17:40;7;6;
43479;PMS5003;29067;35.492;-97.520;2022-07-29T09:20:09;6;6;
43479;PMS5003;29067;35.492;-97.520;2022-07-29T09:22:39;8;7;
43479;PMS5003;29067;35.492;-97.520;2022-07-29T09:25:08;8;8;
43479;PMS5003;29067;35.492;-97.520;2022-07-29T09:27:38;8;8;
43479;PMS5003;29067;35.492;-97.520;2022-07-29T09:30:08;9;9;
43479;PMS5003;29067;35.492;-97.520;2022-07-29T09:32:57;7;7;
43479;PMS5003;29067;35.492;-97.520;2022-07-29T09:35:26;7;7;
43479;PMS5003;29067;35.492;-97.520;2022-07-29T09:37:55;9;9;
43479;PMS5003;29067;35.492;-97.520;2022-07-29T09:40:24;9;9;
43479;PMS5003;29067;35.492;-97.520;2022-07-29T09:42:53;10;9;
43479;PMS5003;29067;35.492;-97.520;2022-07-29T09:45:29;7;7;
43479;PMS5003;29067;35.492;-97.520;2022-07-29T09:47:58;9;8;
43479;PMS5003;29067;35.492;-97.520;2022-07-29T09:50:39;10;9;
43479;PMS5003;29067;35.492;-97.520;2022-07-29T09:53:07;7;6;
43479;PMS5003;29067;35.492;-97.520;2022-07-29T09:55:45;9;8;
43479;PMS5003;29067;35.492;-97.520;2022-07-29T09:58:15;9;8;
43479;PMS5003;29067;35.492;-97.520;2022-07-29T10:00:44;7;7;
43479;PMS5003;29067;35.492;-97.520;2022-07-29T10:03:13;11;10;
43479;PMS5003;29067;35.492;-97.520;2022-07-29T10:05:43;9;9;
43479;PMS5003;29067;35.492;-97.520;2022-07-29T10:08:12;9;9;
43479;PMS5003;29067;35.492;-97.520;2022-07-29T10:10:41;9;9;
43479;PMS5003;29067;35.492;-97.520;2022-07-29T10:13:10;9;9;
43479;PMS5003;29067;35.492;-97.520;2022-07-29T10:15:42;9;9;
43479;PMS5003;29067;35.492;-97.520;2022-07-29T10:18:11;11;11;
43479;PMS5003;29067;35.492;-97.520;2022-07-29T10:20:41;9;9;
43479;PMS5003;29067;35.492;-97.520;2022-07-29T10:23:09;10;10;
43479;PMS5003;29067;35.492;-97.520;2022-07-29T10:25:38;6;6;
43479;PMS5003;29067;35.492;-97.520;2022-07-29T10:28:06;8;8;
43479;PMS5003;29067;35.492;-97.520;2022-07-29T10:30:34;10;10;
43479;PMS5003;29067;35.492;-97.520;2022-07-29T10:33:15;10;9;
43479;PMS5003;29067;35.492;-97.520;2022-07-29T10:36:02;10;9;
43479;PMS5003;29067;35.492;-97.520;2022-07-29T10:38:43;9;9;
43479;PMS5003;29067;35.492;-97.520;2022-07-29T10:41:21;9;9;
43479;PMS5003;29067;35.492;-97.520;2022-07-29T10:44:00;9;8;
43479;PMS5003;29067;35.492;-97.520;2022-07-29T10:46:34;10;10;
43479;PMS5003;29067;35.492;-97.520;2022-07-29T10:49:04;11;9;
43479;PMS5003;29067;35.492;-97.520;2022-07-29T10:52:07;10;9;
43479;PMS5003;29067;35.492;-97.520;2022-07-29T10:54:39;8;8;
43479;PMS5003;29067;35.492;-97.520;2022-07-29T10:57:13;9;9;
43479;PMS5003;29067;35.492;-97.520;2022-07-29T10:59:43;10;10;
43479;PMS5003;29067;35.492;-97.520;2022-07-29T11:03:00;10;9;
43479;PMS5003;29067;35.492;-97.520;2022-07-29T11:05:29;8;7;
43479;PMS5003;29067;35.492;-97.520;2022-07-29T11:08:24;9;9;
43479;PMS5003;29067;35.492;-97.520;2022-07-29T11:10:52;10;10;
43479;PMS5003;29067;35.492;-97.520;2022-07-29T11:15:19;8;7;
43479;PMS5003;29067;35.492;-97.520;2022-07-29T11:18:03;9;9;
43479;PMS5003;29067;35.492;-97.520;2022-07-29T11:20:33;8;8;
43479;PMS5003;29067;35.492;-97.520;2022-07-29T11:23:18;10;9;
43479;PMS5003;29067;35.492;-97.520;2022-07-29T11:26:12;10;10;
43479;PMS5003;29067;35.492;-97.520;2022-07-29T11:28:50;14;12;
43479;PMS5003;29067;35.492;-97.520;2022-07-29T11:31:31;10;10;
43479;PMS5003;29067;35.492;-97.520;2022-07-29T11:34:18;9;9;
43479;PMS5003;29067;35.492;-97.520;2022-07-29T11:37:22;8;8;
43479;PMS5003;29067;35.492;-97.520;2022-07-29T11:40:08;10;10;
43479;PMS5003;29067;35.492;-97.520;2022-07-29T11:42:40;9;9;
43479;PMS5003;29067;35.492;-97.520;2022-07-29T11:45:10;11;11;
43479;PMS5003;29067;35.492;-97.520;2022-07-29T11:47:40;9;9;
43479;PMS5003;29067;35.492;-97.520;2022-07-29T11:50:15;10;10;
43479;PMS5003;29067;35.492;-97.520;2022-07-29T11:52:44;11;9;
43479;PMS5003;29067;35.492;-97.520;2022-07-29T11:55:14;11;10;
43479;PMS5003;29067;35.492;-97.520;2022-07-29T11:57:46;12;11;
43479;PMS5003;29067;35.492;-97.520;2022-07-29T12:00:24;10;10;
43479;PMS5003;29067;35.492;-97.520;2022-07-29T12:02:55;9;9;
43479;PMS5003;29067;35.492;-97.520;2022-07-29T12:05:33;8;8;
43479;PMS5003;29067;35.492;-97.520;2022-07-29T12:08:07;10;10;
43479;PMS5003;29067;35.492;-97.520;2022-07-29T12:10:38;6;5;
43479;PMS5003;29067;35.492;-97.520;2022-07-29T12:13:07;8;8;
43479;PMS5003;29067;35.492;-97.520;2022-07-29T12:15:36;8;8;
43479;PMS5003;29067;35.492;-97.520;2022-07-29T12:18:12;7;7;
43479;PMS5003;29067;35.492;-97.520;2022-07-29T12:20:41;9;9;
43479;PMS5003;29067;35.492;-97.520;2022-07-29T12:23:10;7;7;
43479;PMS5003;29067;35.492;-97.520;2022-07-29T12:25:39;10;9;
43479;PMS5003;29067;35.492;-97.520;2022-07-29T12:28:09;5;5;
43479;PMS5003;29067;35.492;-97.520;2022-07-29T12:30:40;8;8;
43479;PMS5003;29067;35.492;-97.520;2022-07-29T12:33:12;7;7;
43479;PMS5003;29067;35.492;-97.520;2022-07-29T12:35:43;8;7;
43479;PMS5003;29067;35.492;-97.520;2022-07-29T12:38:13;7;7;
43479;PMS5003;29067;35.492;-97.520;2022-07-29T12:40:43;6;6;
43479;PMS5003;29067;35.492;-97.520;2022-07-29T12:43:13;9;7;
43479;PMS5003;29067;35.492;-97.520;2022-07-29T12:45:43;7;5;
43479;PMS5003;29067;35.492;-97.520;2022-07-29T12:48:13;9;9;
43479;PMS5003;29067;35.492;-97.520;2022-07-29T12:50:58;8;8;
43479;PMS5003;29067;35.492;-97.520;2022-07-29T12:53:27;12;10;
43479;PMS5003;29067;35.492;-97.520;2022-07-29T12:55:56;11;10;
43479;PMS5003;29067;35.492;-97.520;2022-07-29T12:58:27;9;9;
43479;PMS5003;29067;35.492;-97.520;2022-07-29T13:01:13;8;8;
43479;PMS5003;29067;35.492;-97.520;2022-07-29T13:03:43;8;7;
43479;PMS5003;29067;35.492;-97.520;2022-07-29T13:06:46;9;9;
43479;PMS5003;29067;35.492;-97.520;2022-07-29T13:09:14;7;7;
43479;PMS5003;29067;35.492;-97.520;2022-07-29T13:11:43;8;8;
43479;PMS5003;29067;35.492;-97.520;2022-07-29T13:14:13;7;7;
43479;PMS5003;29067;35.492;-97.520;2022-07-29T13:17:04;7;7;
43479;PMS5003;29067;35.492;-97.520;2022-07-29T13:19:33;6;6;
43479;PMS5003;29067;35.492;-97.520;2022-07-29T13:22:04;8;8;
43479;PMS5003;29067;35.492;-97.520;2022-07-29T13:24:32;7;7;
43479;PMS5003;29067;35.492;-97.520;2022-07-29T13:27:00;9;7;
43479;PMS5003;29067;35.492;-97.520;2022-07-29T13:29:28;8;8;
43479;PMS5003;29067;35.492;-97.520;2022-07-29T13:31:55;7;7;
43479;PMS5003;29067;35.492;-97.520;2022-07-29T13:34:24;6;6;
43479;PMS5003;29067;35.492;-97.520;2022-07-29T13:36:51;6;6;
43479;PMS5003;29067;35.492;-97.520;2022-07-29T13:39:19;6;6;
43479;PMS5003;29067;35.492;-97.520;2022-07-29T13:41:47;9;7;
43479;PMS5003;29067;35.492;-97.520;2022-07-29T13:44:14;8;8;
43479;PMS5003;29067;35.492;-97.520;2022-07-29T13:46:42;10;9;
43479;PMS5003;29067;35.492;-97.520;2022-07-29T13:49:09;10;10;
43479;PMS5003;29067;35.492;-97.520;2022-07-29T13:51:37;11;9;
43479;PMS5003;29067;35.492;-97.520;2022-07-29T13:54:05;9;9;
43479;PMS5003;29067;35.492;-97.520;2022-07-29T13:56:33;10;10;
43479;PMS5003;29067;35.492;-97.520;2022-07-29T13:59:01;10;8;
43479;PMS5003;29067;35.492;-97.520;2022-07-29T14:01:28;9;9;
43479;PMS5003;29067;35.492;-97.520;2022-07-29T14:03:56;7;7;
43479;PMS5003;29067;35.492;-97.520;2022-07-29T14:06:23;9;9;
43479;PMS5003;29067;35.492;-97.520;2022-07-29T14:08:51;9;9;
43479;PMS5003;29067;35.492;-97.520;2022-07-29T14:11:18;9;9;
43479;PMS5003;29067;35.492;-97.520;2022-07-29T14:13:47;9;9;
43479;PMS5003;29067;35.492;-97.520;2022-07-29T14:16:14;11;11;
43479;PMS5003;29067;35.492;-97.520;2022-07-29T14:18:42;10;10;
43479;PMS5003;29067;35.492;-97.520;2022-07-29T14:21:10;11;11;
43479;PMS5003;29067;35.492;-97.520;2022-07-29T14:23:38;12;12;
43479;PMS5003;29067;35.492;-97.520;2022-07-29T14:26:05;13;12;
43479;PMS5003;29067;35.492;-97.520;2022-07-29T14:28:33;12;12;
43479;PMS5003;29067;35.492;-97.520;2022-07-29T14:31:00;15;13;
43479;PMS5003;29067;35.492;-97.520;2022-07-29T14:33:28;14;13;
43479;PMS5003;29067;35.492;-97.520;2022-07-29T14:35:56;13;12;
43479;PMS5003;29067;35.492;-97.520;2022-07-29T14:38:25;14;13;
43479;PMS5003;29067;35.492;-97.520;2022-07-29T14:40:52;12;12;
43479;PMS5003;29067;35.492;-97.520;2022-07-29T14:43:20;12;12;
43479;PMS5003;29067;35.492;-97.520;2022-07-29T14:45:47;10;10;
43479;PMS5003;29067;35.492;-97.520;2022-07-29T14:48:16;15;13;
43479;PMS5003;29067;35.492;-97.520;2022-07-29T14:50:43;12;12;
43479;PMS5003;29067;35.492;-97.520;2022-07-29T14:53:11;12;12;
43479;PMS5003;29067;35.492;-97.520;2022-07-29T14:55:39;12;11;
43479;PMS5003;29067;35.492;-97.520;2022-07-29T14:58:07;12;11;
43479;PMS5003;29067;35.492;-97.520;2022-07-29T15:00:35;10;10;
43479;PMS5003;29067;35.492;-97.520;2022-07-29T15:03:03;14;12;
43479;PMS5003;29067;35.492;-97.520;2022-07-29T15:05:31;11;10;
43479;PMS5003;29067;35.492;-97.520;2022-07-29T15:07:59;9;9;
43479;PMS5003;29067;35.492;-97.520;2022-07-29T15:10:26;11;11;
43479;PMS5003;29067;35.492;-97.520;2022-07-29T15:12:55;9;9;
43479;PMS5003;29067;35.492;-97.520;2022-07-29T15:15:23;11;10;
43479;PMS5003;29067;35.492;-97.520;2022-07-29T15:17:52;7;7;
43479;PMS5003;29067;35.492;-97.520;2022-07-29T15:20:20;10;9;
43479;PMS5003;29067;35.492;-97.520;2022-07-29T15:22:48;6;6;
43479;PMS5003;29067;35.492;-97.520;2022-07-29T15:25:16;10;10;
43479;PMS5003;29067;35.492;-97.520;2022-07-29T15:27:44;11;10;
43479;PMS5003;29067;35.492;-97.520;2022-07-29T15:30:12;9;9;
43479;PMS5003;29067;35.492;-97.520;2022-07-29T15:32:39;8;8;
43479;PMS5003;29067;35.492;-97.520;2022-07-29T15:35:07;11;10;
43479;PMS5003;29067;35.492;-97.520;2022-07-29T15:37:35;10;10;
43479;PMS5003;29067;35.492;-97.520;2022-07-29T15:40:04;9;9;
43479;PMS5003;29067;35.492;-97.520;2022-07-29T15:42:34;9;9;
43479;PMS5003;29067;35.492;-97.520;2022-07-29T15:45:02;11;10;
43479;PMS5003;29067;35.492;-97.520;2022-07-29T15:47:31;9;8;
43479;PMS5003;29067;35.492;-97.520;2022-07-29T15:49:58;9;8;
43479;PMS5003;29067;35.492;-97.520;2022-07-29T15:52:26;10;10;
43479;PMS5003;29067;35.492;-97.520;2022-07-29T15:54:54;9;9;
43479;PMS5003;29067;35.492;-97.520;2022-07-29T15:57:23;9;9;
43479;PMS5003;29067;35.492;-97.520;2022-07-29T15:59:51;9;8;
43479;PMS5003;29067;35.492;-97.520;2022-07-29T16:02:19;6;6;
43479;PMS5003;29067;35.492;-97.520;2022-07-29T16:04:47;9;9;
43479;PMS5003;29067;35.492;-97.520;2022-07-29T16:07:14;7;7;
43479;PMS5003;29067;35.492;-97.520;2022-07-29T16:09:42;7;7;
43479;PMS5003;29067;35.492;-97.520;2022-07-29T16:12:10;8;7;
43479;PMS5003;29067;35.492;-97.520;2022-07-29T16:14:38;7;7;
43479;PMS5003;29067;35.492;-97.520;2022-07-29T16:17:05;9;9;
43479;PMS5003;29067;35.492;-97.520;2022-07-29T16:19:33;8;8;
43479;PMS5003;29067;35.492;-97.520;2022-07-29T16:22:00;6;6;
43479;PMS5003;29067;35.492;-97.520;2022-07-29T16:24:28;8;8;
43479;PMS5003;29067;35.492;-97.520;2022-07-29T16:26:56;9;9;
43479;PMS5003;29067;35.492;-97.520;2022-07-29T16:29:24;8;7;
43479;PMS5003;29067;35.492;-97.520;2022-07-29T16:31:52;9;9;